createdAt,value
2019-03-18T05:01:25.570Z,0.00
2019-03-18T05:12:16.981Z,0.00
2019-03-18T05:27:15.278Z,5.63
2019-03-18T06:17:17.842Z,84.38
2019-03-18T06:24:45.561Z,73.13
2019-03-18T06:25:19.991Z,73.13
2019-03-18T06:31:16.993Z,84.38
2019-03-18T06:41:28.547Z,101.25
2019-03-18T06:42:39.507Z,95.63
2019-03-18T06:43:35.035Z,90.00
2019-03-18T06:46:16.866Z,78.75
2019-03-18T07:05:13.156Z,112.50
2019-03-18T07:05:56.115Z,123.75
2019-03-18T07:06:32.722Z,129.38
2019-03-18T07:08:06.558Z,129.38
2019-03-18T07:10:29.360Z,95.63
2019-03-18T07:11:06.877Z,95.63
2019-03-18T07:12:08.808Z,95.63
2019-03-18T07:13:05.568Z,90.00
2019-03-18T07:14:33.811Z,95.63
2019-03-18T07:15:30.449Z,101.25
2019-03-18T07:17:57.165Z,90.00
2019-03-18T07:18:40.237Z,90.00
2019-03-18T07:19:39.457Z,90.00
2019-03-18T07:20:41.677Z,90.00
2019-03-18T07:23:29.202Z,78.75
2019-03-18T07:24:32.835Z,84.38
2019-03-18T07:41:07.224Z,112.50
2019-03-18T07:41:39.837Z,101.25
2019-03-18T07:43:03.963Z,90.00
2019-03-18T07:55:01.842Z,168.75
2019-03-18T07:56:22.452Z,196.88
2019-03-18T07:58:40.065Z,208.13
2019-03-18T08:03:03.324Z,163.13
2019-03-18T08:04:00.299Z,185.63
2019-03-18T08:05:13.377Z,174.38
2019-03-18T08:05:39.103Z,151.88
2019-03-18T08:10:11.719Z,163.13
2019-03-18T08:16:20.167Z,129.38
2019-03-18T08:20:03.167Z,196.88
2019-03-18T08:22:53.264Z,196.88
2019-03-18T08:23:29.448Z,230.63
2019-03-18T08:24:36.160Z,253.13
2019-03-18T08:25:52.451Z,253.13
2019-03-18T08:40:57.703Z,360.00
2019-03-18T08:41:34.172Z,506.25
2019-03-18T08:42:41.201Z,765.00
2019-03-18T08:45:27.889Z,765.00
2019-03-18T08:48:10.200Z,472.50
2019-03-18T08:52:12.313Z,320.63
2019-03-18T08:52:42.089Z,337.50
2019-03-18T08:54:00.520Z,393.75
2019-03-18T08:54:43.232Z,450.00
2019-03-18T08:55:47.027Z,523.13
2019-03-18T09:00:16.039Z,495.00
2019-03-18T09:00:46.199Z,568.13
2019-03-18T09:53:25.675Z,562.50
2019-03-18T09:54:24.599Z,534.38
2019-03-18T09:55:26.009Z,551.25
2019-03-18T09:56:25.625Z,506.25
2019-03-18T09:57:26.263Z,461.25
2019-03-18T09:58:24.916Z,433.13
2019-03-18T09:59:29.170Z,421.88
2019-03-18T10:00:31.157Z,421.88
2019-03-18T10:01:24.057Z,466.88
2019-03-18T10:02:30.684Z,607.50
2019-03-18T10:03:25.689Z,5152.50
2019-03-18T10:04:26.761Z,2784.38
2019-03-18T10:05:24.278Z,1603.13
2019-03-18T10:06:27.131Z,5686.88
2019-03-18T10:08:01.854Z,5591.25
2019-03-18T10:08:33.583Z,5546.25
2019-03-18T10:09:27.052Z,5580.00
2019-03-18T10:10:25.069Z,5568.75
2019-03-18T10:11:25.279Z,5124.38
2019-03-18T10:12:30.637Z,5630.63
2019-03-18T10:15:33.271Z,5748.75
2019-03-18T10:16:06.432Z,5771.25
2019-03-18T10:17:09.746Z,5827.50
2019-03-18T10:18:13.677Z,1580.63
2019-03-18T10:23:41.110Z,1321.88
2019-03-18T10:24:59.782Z,1580.63
2019-03-18T10:25:44.097Z,1558.13
2019-03-18T10:27:05.695Z,1496.25
2019-03-18T10:27:40.595Z,1220.63
2019-03-18T10:28:40.198Z,1074.38
2019-03-18T10:31:38.242Z,5996.25
2019-03-18T10:32:33.435Z,1428.75
2019-03-18T10:36:41.031Z,6001.88
2019-03-18T10:39:28.020Z,3791.25
2019-03-18T10:47:40.776Z,2733.75
2019-03-18T10:52:34.955Z,810.00
2019-03-18T10:53:33.248Z,1231.88
2019-03-18T10:56:36.839Z,1226.25
2019-03-18T10:58:51.596Z,4128.75
2019-03-18T10:59:40.057Z,2188.13
2019-03-18T11:00:40.157Z,4258.13
2019-03-18T11:01:41.036Z,5467.50
2019-03-18T11:02:41.036Z,5563.13
2019-03-18T11:04:04.456Z,5551.88
2019-03-18T11:04:44.301Z,5512.50
2019-03-18T11:05:40.290Z,5445.00
2019-03-18T11:06:50.080Z,5416.88
2019-03-18T11:07:39.869Z,5388.75
2019-03-18T11:08:39.856Z,5355.00
2019-03-18T11:09:40.449Z,5405.63
2019-03-18T11:10:55.784Z,5405.63
2019-03-18T11:11:46.832Z,5366.25
2019-03-18T11:12:41.202Z,5355.00
2019-03-18T11:15:16.994Z,5315.63
2019-03-18T11:16:13.479Z,5265.00
2019-03-18T11:17:35.651Z,5203.13
2019-03-18T11:18:34.458Z,5203.13
2019-03-18T11:19:37.373Z,5220.00
2019-03-18T11:20:12.011Z,5253.75
2019-03-18T11:21:18.129Z,5304.38
2019-03-18T11:22:16.892Z,5287.50
2019-03-18T11:23:16.878Z,5304.38
2019-03-18T11:24:36.866Z,5343.75
2019-03-18T11:25:14.565Z,5394.38
2019-03-18T11:26:15.909Z,5400.00
2019-03-18T11:27:38.034Z,5416.88
2019-03-18T11:30:11.419Z,5405.63
2019-03-18T11:31:15.945Z,5433.75
2019-03-18T11:31:49.900Z,5445.00
2019-03-18T11:32:52.057Z,5473.13
2019-03-18T11:56:52.071Z,523.13
2019-03-18T11:57:48.136Z,489.38
2019-03-18T11:58:50.634Z,540.00
2019-03-18T12:00:02.695Z,658.13
2019-03-18T12:00:49.311Z,3223.13
2019-03-18T12:01:48.708Z,5000.63
2019-03-18T12:03:11.756Z,5068.13
2019-03-18T12:03:50.679Z,5006.25
2019-03-18T12:05:05.143Z,4927.50
2019-03-18T12:05:53.666Z,4899.38
2019-03-18T12:06:49.533Z,4927.50
2019-03-18T12:07:55.195Z,4950.00
2019-03-18T12:09:00.429Z,4978.13
2019-03-18T12:09:51.680Z,5011.88
2019-03-18T12:10:50.702Z,5135.63
2019-03-18T12:11:49.341Z,5101.88
2019-03-18T12:12:50.708Z,2593.13
2019-03-18T12:13:51.639Z,1558.13
2019-03-18T12:15:21.422Z,1355.63
2019-03-18T12:16:01.876Z,1558.13
2019-03-18T12:16:52.225Z,3825.00
2019-03-18T12:17:53.210Z,5259.38
2019-03-18T12:18:52.305Z,5130.00
2019-03-18T12:19:52.148Z,5051.25
2019-03-18T12:20:52.562Z,4978.13
2019-03-18T12:21:52.779Z,4860.00
2019-03-18T12:22:55.246Z,4421.25
2019-03-18T12:23:56.335Z,1091.25
2019-03-18T12:24:57.668Z,1710.00
2019-03-18T12:26:16.148Z,1963.13
2019-03-18T12:27:00.156Z,866.25
2019-03-18T12:27:58.145Z,759.38
2019-03-18T12:28:54.207Z,759.38
2019-03-18T12:29:56.792Z,658.13
2019-03-18T12:30:54.139Z,534.38
2019-03-18T12:31:54.648Z,461.25
2019-03-18T12:32:57.195Z,416.25
2019-03-18T12:33:57.406Z,354.38
2019-03-18T12:34:57.194Z,298.13
2019-03-18T12:35:57.673Z,320.63
2019-03-18T12:36:54.913Z,348.75
2019-03-18T12:37:56.718Z,382.50
2019-03-18T12:38:57.253Z,326.25
2019-03-18T12:40:00.393Z,286.88
2019-03-18T12:40:56.193Z,309.38
2019-03-18T12:41:58.735Z,343.13
2019-03-18T12:42:56.702Z,388.13
2019-03-18T12:43:56.181Z,427.50
2019-03-18T12:44:57.202Z,466.88
2019-03-18T12:45:55.558Z,517.50
2019-03-18T12:46:55.764Z,714.38
2019-03-18T12:47:55.981Z,1203.75
2019-03-18T12:48:57.211Z,2115.00
2019-03-18T12:49:56.410Z,3870.00
2019-03-18T12:51:00.191Z,4303.13
2019-03-18T12:51:58.704Z,4196.25
2019-03-18T12:52:59.737Z,4348.13
2019-03-18T12:53:57.083Z,4449.38
2019-03-18T12:54:57.306Z,4415.63
2019-03-18T12:55:59.191Z,4325.63
2019-03-18T12:56:58.678Z,4269.38
2019-03-18T12:57:59.688Z,4230.00
2019-03-18T12:58:59.761Z,4201.88
2019-03-18T12:59:58.158Z,4173.75
2019-03-18T13:01:12.215Z,4145.63
2019-03-18T13:02:02.958Z,4100.63
2019-03-18T13:03:03.195Z,4095.00
2019-03-18T13:04:00.726Z,4061.25
2019-03-18T13:05:05.982Z,4016.25
2019-03-18T13:06:03.087Z,4044.38
2019-03-18T13:07:01.208Z,3999.38
2019-03-18T13:08:04.214Z,3965.63
2019-03-18T13:09:01.711Z,3943.13
2019-03-18T13:10:01.692Z,3931.88
2019-03-18T13:11:03.712Z,3926.25
2019-03-18T13:12:00.361Z,3915.00
2019-03-18T13:13:02.258Z,3903.75
2019-03-18T13:14:02.254Z,3892.50
2019-03-18T13:15:01.394Z,3886.88
2019-03-18T13:16:04.784Z,3881.25
2019-03-18T13:17:01.717Z,3841.88
2019-03-18T13:18:03.214Z,3836.25
2019-03-18T13:19:01.663Z,3920.63
2019-03-18T13:20:05.195Z,3853.13
2019-03-18T13:21:07.700Z,3802.50
2019-03-18T13:22:02.147Z,3796.88
2019-03-18T13:23:02.375Z,3813.75
2019-03-18T13:24:04.209Z,3796.88
2019-03-18T13:25:04.699Z,3780.00
2019-03-18T13:26:02.920Z,3701.25
2019-03-18T13:27:03.190Z,3684.38
2019-03-18T13:28:05.990Z,3628.13
2019-03-18T13:29:19.194Z,3600.00
2019-03-18T13:30:06.196Z,3571.88
2019-03-18T13:31:03.852Z,3510.00
2019-03-18T13:32:05.705Z,3515.63
2019-03-18T13:33:04.230Z,3504.38
2019-03-18T13:34:06.684Z,3470.63
2019-03-18T13:35:21.226Z,3442.50
2019-03-18T13:36:04.728Z,3425.63
2019-03-18T13:37:05.545Z,3408.75
2019-03-18T13:38:08.163Z,3386.25
2019-03-18T13:39:29.217Z,3363.75
2019-03-18T13:40:08.251Z,3330.00
2019-03-18T13:41:09.153Z,3301.88
2019-03-18T13:42:09.228Z,3285.00
2019-03-18T13:43:10.906Z,3279.38
2019-03-18T13:44:13.780Z,3262.50
2019-03-18T13:45:09.152Z,3251.25
2019-03-18T13:46:08.231Z,3256.88
2019-03-18T13:47:06.590Z,3296.25
2019-03-18T13:48:08.711Z,2266.88
2019-03-18T13:49:08.697Z,3228.75
2019-03-18T13:50:09.165Z,3183.75
2019-03-18T13:51:20.322Z,2981.25
2019-03-18T13:52:11.200Z,2694.38
2019-03-18T13:53:10.706Z,2244.38
2019-03-18T13:54:11.201Z,1800.00
2019-03-18T13:55:09.737Z,1963.13
2019-03-18T13:56:10.215Z,2593.13
2019-03-18T13:57:16.941Z,2621.25
2019-03-18T13:58:11.659Z,3076.88
2019-03-18T13:59:08.634Z,3144.38
2019-03-18T14:00:08.857Z,3150.00
2019-03-18T14:01:10.111Z,900.00
2019-03-18T14:02:13.756Z,3037.50
2019-03-18T14:03:09.917Z,3003.75
2019-03-18T14:04:11.195Z,2925.00
2019-03-18T14:05:11.201Z,2840.63
2019-03-18T14:06:09.794Z,2739.38
2019-03-18T14:07:11.787Z,2643.75
2019-03-18T14:08:17.206Z,2553.75
2019-03-18T14:09:12.219Z,2491.88
2019-03-18T14:10:13.037Z,2458.13
2019-03-18T14:11:10.893Z,2435.63
2019-03-18T14:12:12.157Z,2441.25
2019-03-18T14:13:14.656Z,2486.25
2019-03-18T14:14:12.275Z,2508.75
2019-03-18T14:15:15.230Z,2486.25
2019-03-18T14:16:27.202Z,2486.25
2019-03-18T14:17:13.707Z,2458.13
2019-03-18T14:18:13.708Z,2227.50
2019-03-18T14:19:27.725Z,2407.50
2019-03-18T14:20:16.204Z,2317.50
2019-03-18T14:21:12.535Z,2283.75
2019-03-18T14:22:29.503Z,1648.13
2019-03-18T14:23:15.380Z,2441.25
2019-03-18T14:24:14.708Z,2328.75
2019-03-18T14:25:15.212Z,2351.25
2019-03-18T14:26:18.126Z,1794.38
2019-03-18T14:27:15.252Z,1327.50
2019-03-18T14:28:14.390Z,1203.75
2019-03-18T14:29:15.705Z,1479.38
2019-03-18T14:30:37.161Z,1091.25
2019-03-18T14:31:18.153Z,855.00
2019-03-18T14:32:15.525Z,1496.25
2019-03-18T14:33:14.744Z,1766.25
2019-03-18T14:35:51.620Z,1524.38
2019-03-18T14:36:51.667Z,1665.00
2019-03-18T14:37:47.372Z,1563.75
2019-03-18T14:38:47.448Z,1670.63
2019-03-18T14:39:51.666Z,2030.63
2019-03-18T14:40:52.874Z,2053.13
2019-03-18T14:41:48.007Z,2064.38
2019-03-18T14:42:48.182Z,2115.00
2019-03-18T14:43:48.410Z,2171.25
2019-03-18T14:44:52.099Z,2070.00
2019-03-18T14:45:53.422Z,2025.00
2019-03-18T14:46:48.969Z,1957.50
2019-03-18T14:47:57.064Z,1918.13
2019-03-18T14:48:51.099Z,1867.50
2019-03-18T14:49:49.444Z,1805.63
2019-03-18T14:50:50.864Z,1828.13
2019-03-18T14:51:49.945Z,1816.88
2019-03-18T14:52:50.036Z,1687.50
2019-03-18T14:53:55.141Z,1726.88
2019-03-18T14:54:52.103Z,1659.38
2019-03-18T14:55:51.547Z,1693.13
2019-03-18T14:56:58.618Z,1670.63
2019-03-18T14:57:54.604Z,1631.25
2019-03-18T14:58:52.606Z,1530.00
2019-03-18T14:59:53.120Z,1192.50
2019-03-18T15:00:51.321Z,703.13
2019-03-18T15:01:51.535Z,545.63
2019-03-18T15:02:54.613Z,540.00
2019-03-18T15:03:52.947Z,540.00
2019-03-18T15:04:56.103Z,540.00
2019-03-18T15:05:52.375Z,534.38
2019-03-18T15:06:52.560Z,478.13
2019-03-18T15:07:52.655Z,478.13
2019-03-18T15:08:52.870Z,500.63
2019-03-18T15:09:53.086Z,506.25
2019-03-18T15:10:53.286Z,517.50
2019-03-18T15:11:53.513Z,433.13
2019-03-18T15:12:54.778Z,506.25
2019-03-18T15:13:55.682Z,506.25
2019-03-18T15:14:54.980Z,506.25
2019-03-18T15:15:54.187Z,472.50
2019-03-18T15:16:58.140Z,455.63
2019-03-18T15:17:54.609Z,489.38
2019-03-18T15:18:54.860Z,489.38
2019-03-18T15:19:55.077Z,489.38
2019-03-18T15:20:55.277Z,483.75
2019-03-18T15:21:58.557Z,489.38
2019-03-18T15:22:55.695Z,489.38
2019-03-18T15:23:55.910Z,489.38
2019-03-18T15:24:59.162Z,483.75
2019-03-18T15:25:56.345Z,472.50
2019-03-18T15:26:56.553Z,455.63
2019-03-18T15:27:56.757Z,444.38
2019-03-18T15:28:58.610Z,427.50
2019-03-18T15:30:01.804Z,421.88
2019-03-18T15:30:59.137Z,410.63
2019-03-18T15:31:57.584Z,405.00
2019-03-18T15:32:57.789Z,399.38
2019-03-18T15:33:58.021Z,393.75
2019-03-18T15:34:58.243Z,388.13
2019-03-18T15:35:58.339Z,382.50
2019-03-18T15:36:58.554Z,376.88
2019-03-18T15:38:00.646Z,376.88
2019-03-18T15:39:00.616Z,371.25
2019-03-18T15:40:00.618Z,365.63
2019-03-18T15:40:59.255Z,365.63
2019-03-18T15:42:01.107Z,360.00
2019-03-18T15:42:59.576Z,360.00
2019-03-18T15:43:59.788Z,354.38
2019-03-18T15:45:03.617Z,354.38
2019-03-18T15:46:02.180Z,354.38
2019-03-18T15:47:00.401Z,354.38
2019-03-18T15:48:00.623Z,354.38
2019-03-18T15:49:02.624Z,354.38
2019-03-18T15:50:00.941Z,348.75
2019-03-18T15:51:01.145Z,348.75
2019-03-18T15:52:11.019Z,348.75
2019-03-18T15:53:03.105Z,258.75
2019-03-18T15:54:03.602Z,326.25
2019-03-18T15:55:01.875Z,264.38
2019-03-18T15:56:02.059Z,286.88
2019-03-18T15:57:02.267Z,253.13
2019-03-18T15:58:02.478Z,253.13
2019-03-18T15:59:02.679Z,331.88
2019-03-18T16:00:02.924Z,247.50
2019-03-18T16:01:06.694Z,247.50
2019-03-18T16:02:03.231Z,247.50
2019-03-18T16:03:07.115Z,253.13
2019-03-18T16:04:05.109Z,258.75
2019-03-18T16:05:04.701Z,281.25
2019-03-18T16:06:03.973Z,360.00
2019-03-18T16:07:04.035Z,365.63
2019-03-18T16:08:06.131Z,365.63
2019-03-18T16:09:04.494Z,354.38
2019-03-18T16:10:06.621Z,354.38
2019-03-18T16:11:04.838Z,354.38
2019-03-18T16:12:07.609Z,354.38
2019-03-18T16:13:06.602Z,354.38
2019-03-18T16:14:05.188Z,348.75
2019-03-18T16:15:05.378Z,343.13
2019-03-18T16:16:05.592Z,337.50
2019-03-18T16:17:08.638Z,337.50
2019-03-18T16:18:05.969Z,337.50
2019-03-18T16:19:06.182Z,326.25
2019-03-18T16:20:06.381Z,320.63
2019-03-18T16:21:06.603Z,315.00
2019-03-18T16:22:22.764Z,309.38
2019-03-18T16:23:07.968Z,303.75
2019-03-18T16:24:09.104Z,298.13
2019-03-18T16:25:11.711Z,286.88
2019-03-18T16:35:20.318Z,230.63
2019-03-18T16:36:20.321Z,230.63
2019-03-18T16:37:18.897Z,225.00
2019-03-18T16:38:19.538Z,219.38
2019-03-18T16:39:19.328Z,213.75
2019-03-18T16:40:19.494Z,208.13
2019-03-18T16:41:19.747Z,208.13
2019-03-18T16:42:21.872Z,202.50
2019-03-18T16:43:26.825Z,202.50
2019-03-18T16:44:22.910Z,202.50
2019-03-18T16:45:22.334Z,196.88
2019-03-18T16:46:22.330Z,196.88
2019-03-18T16:47:22.318Z,185.63
2019-03-18T16:48:22.820Z,146.25
2019-03-18T16:49:21.029Z,129.38
2019-03-18T16:50:21.237Z,123.75
2019-03-18T16:51:22.439Z,123.75
2019-03-18T16:52:21.632Z,118.13
2019-03-18T16:53:21.846Z,112.50
2019-03-18T16:54:23.829Z,106.88
2019-03-18T16:55:22.289Z,106.88
2019-03-18T16:56:22.487Z,101.25
2019-03-18T16:57:22.704Z,95.63
2019-03-18T16:58:22.903Z,95.63
2019-03-18T16:59:24.140Z,90.00
2019-03-18T17:00:24.321Z,90.00
2019-03-18T17:01:23.540Z,84.38
2019-03-18T17:02:23.651Z,84.38
2019-03-18T17:03:25.815Z,78.75
2019-03-18T17:04:45.025Z,78.75
2019-03-18T17:05:24.205Z,73.13
2019-03-18T17:06:24.405Z,73.13
2019-03-18T17:07:24.613Z,67.50
2019-03-18T17:08:24.828Z,67.50
2019-03-18T17:09:24.937Z,61.88
2019-03-18T17:10:27.836Z,61.88
2019-03-18T17:11:27.227Z,56.25
2019-03-18T17:12:25.439Z,56.25
2019-03-18T17:13:25.641Z,56.25
2019-03-18T17:14:27.821Z,50.63
2019-03-18T17:15:26.037Z,50.63
2019-03-18T17:16:27.246Z,45.00
2019-03-18T17:17:32.495Z,45.00
2019-03-18T17:18:28.331Z,39.38
2019-03-18T17:19:26.903Z,39.38
2019-03-18T17:20:27.103Z,39.38
2019-03-18T17:21:28.821Z,33.75
2019-03-18T17:22:29.025Z,33.75
2019-03-18T17:23:29.341Z,28.13
2019-03-18T17:24:29.825Z,28.13
2019-03-18T17:25:29.824Z,28.13
2019-03-18T17:26:28.275Z,22.50
2019-03-18T17:27:28.490Z,22.50
2019-03-18T17:28:29.726Z,16.88
2019-03-18T17:29:28.823Z,16.88
2019-03-18T17:30:29.046Z,16.88
2019-03-18T17:31:30.844Z,11.25
2019-03-18T17:32:30.305Z,11.25
2019-03-18T17:33:30.294Z,11.25
2019-03-18T17:34:31.324Z,11.25
2019-03-18T17:35:31.856Z,5.63
2019-03-18T17:36:30.772Z,5.63
2019-03-18T17:37:30.242Z,5.63
2019-03-18T17:38:32.323Z,5.63
2019-03-18T17:39:32.335Z,5.63
2019-03-18T17:40:32.317Z,5.63
2019-03-18T17:41:36.849Z,0.00
2019-03-18T17:42:31.214Z,0.00
2019-03-18T17:43:36.015Z,0.00
2019-03-18T17:44:36.092Z,0.00
2019-03-18T17:45:33.345Z,0.00
2019-03-18T17:46:31.941Z,0.00
2019-03-18T17:47:33.827Z,0.00
2019-03-18T17:48:33.851Z,0.00
2019-03-18T17:49:34.333Z,0.00
2019-03-18T17:50:36.316Z,0.00
2019-03-18T17:51:33.461Z,0.00
2019-03-18T17:52:33.012Z,0.00
2019-03-18T17:53:33.109Z,0.00
2019-03-18T17:54:33.324Z,0.00
2019-03-18T17:55:35.317Z,0.00
2019-03-18T17:56:37.337Z,0.00
2019-03-18T17:57:34.810Z,0.00
2019-03-18T17:58:35.818Z,0.00
2019-03-18T17:59:37.814Z,0.00
2019-03-18T18:00:35.820Z,0.00
2019-03-18T18:01:36.361Z,0.00
2019-03-18T18:02:34.541Z,0.00
2019-03-18T18:03:36.350Z,0.00
2019-03-18T18:04:34.937Z,0.00
2019-03-18T18:05:38.827Z,0.00
2019-03-18T18:06:41.870Z,0.00
2019-03-18T18:07:35.444Z,0.00
2019-03-18T18:08:35.694Z,0.00
2019-03-18T18:09:51.318Z,0.00
2019-03-18T18:10:36.009Z,0.00
2019-03-18T18:11:36.221Z,0.00
2019-03-18T18:12:36.457Z,0.00
2019-03-18T18:13:38.350Z,0.00
2019-03-18T18:14:40.620Z,0.00
2019-03-18T18:15:38.846Z,0.00
2019-03-18T18:16:38.854Z,0.00
2019-03-18T18:17:38.820Z,0.00
2019-03-18T18:18:38.558Z,0.00
2019-03-18T18:19:39.329Z,0.00
2019-03-18T18:20:41.330Z,0.00
2019-03-18T18:21:37.939Z,0.00
2019-03-18T18:22:41.869Z,0.00
2019-03-18T18:23:39.818Z,0.00
2019-03-18T18:24:39.821Z,0.00
2019-03-18T18:25:42.337Z,0.00
2019-03-18T18:26:45.325Z,0.00
2019-03-18T18:27:38.641Z,0.00
2019-03-18T18:28:41.640Z,0.00
2019-03-18T18:29:39.008Z,0.00
2019-03-18T18:30:42.819Z,0.00
2019-03-18T18:31:39.271Z,0.00
2019-03-18T18:32:39.474Z,0.00
2019-03-18T18:33:41.338Z,0.00
2019-03-18T18:35:00.906Z,0.00
2019-03-18T18:35:41.819Z,0.00
2019-03-18T18:36:40.274Z,0.00
2019-03-18T18:37:42.321Z,0.00
2019-03-18T18:38:48.354Z,0.00
2019-03-18T18:39:43.430Z,0.00
2019-03-18T18:40:48.841Z,0.00
2019-03-18T18:41:41.179Z,0.00
2019-03-18T18:42:43.351Z,0.00
2019-03-18T18:43:41.517Z,0.00
2019-03-18T18:44:43.323Z,0.00
2019-03-18T18:45:44.030Z,0.00
2019-03-18T18:46:43.822Z,0.00
2019-03-18T18:47:43.823Z,0.00
2019-03-18T18:48:42.484Z,0.00
2019-03-18T18:49:48.344Z,0.00
2019-03-18T18:50:44.321Z,0.00
2019-03-18T18:51:42.768Z,0.00
2019-03-18T18:52:46.828Z,0.00
2019-03-18T18:53:43.157Z,0.00
2019-03-18T18:54:44.408Z,0.00
2019-03-18T18:55:44.501Z,0.00
2019-03-18T18:56:47.337Z,0.00
2019-03-18T18:57:50.821Z,0.00
2019-03-18T18:58:44.176Z,0.00
2019-03-18T18:59:45.273Z,0.00
2019-03-18T19:00:46.326Z,0.00
2019-03-18T19:01:48.322Z,0.00
2019-03-18T19:02:44.806Z,0.00
2019-03-18T19:03:46.046Z,0.00
2019-03-18T19:04:45.139Z,0.00
2019-03-18T19:06:01.323Z,0.00
2019-03-18T19:06:46.539Z,0.00
2019-03-18T19:07:52.330Z,0.00
2019-03-18T19:08:45.823Z,0.00
2019-03-18T19:09:47.817Z,0.00
2019-03-18T19:10:47.840Z,0.00
2019-03-18T19:11:47.320Z,0.00
2019-03-18T19:12:47.395Z,0.00
2019-03-18T19:13:49.273Z,0.00
2019-03-18T19:14:50.817Z,0.00
2019-03-18T19:16:02.873Z,0.00
2019-03-18T19:16:50.821Z,0.00
2019-03-18T19:17:47.421Z,0.00
2019-03-18T19:18:50.378Z,0.00
2019-03-18T19:19:49.321Z,0.00
2019-03-18T19:20:49.816Z,0.00
2019-03-18T19:21:48.031Z,0.00
2019-03-18T19:22:51.827Z,0.00
2019-03-18T19:23:48.435Z,0.00
2019-03-18T19:24:50.351Z,0.00
2019-03-18T19:25:49.794Z,0.00
2019-03-18T19:26:50.819Z,0.00
2019-03-18T19:27:49.149Z,0.00
2019-03-18T19:28:49.351Z,0.00
2019-03-18T19:29:50.579Z,0.00
2019-03-18T19:30:51.298Z,0.00
2019-03-18T19:31:54.791Z,0.00
2019-03-18T19:32:50.791Z,0.00
2019-03-18T19:33:51.136Z,0.00
2019-03-18T19:34:54.320Z,0.00
2019-03-18T19:35:50.538Z,0.00
2019-03-18T19:36:52.329Z,0.00
2019-03-18T19:37:50.945Z,0.00
2019-03-18T19:38:52.820Z,0.00
2019-03-18T19:39:57.849Z,0.00
2019-03-18T19:40:55.315Z,0.00
2019-03-18T19:41:53.324Z,0.00
2019-03-18T19:42:56.303Z,0.00
2019-03-18T19:43:55.819Z,0.00
2019-03-18T19:44:52.143Z,0.00
2019-03-18T19:45:53.802Z,0.00
2019-03-18T19:46:52.532Z,0.00
2019-03-18T19:47:56.754Z,0.00
2019-03-18T19:49:00.844Z,0.00
2019-03-18T19:50:08.836Z,0.00
2019-03-18T19:50:54.862Z,0.00
2019-03-18T19:51:53.446Z,0.00
2019-03-18T19:52:53.681Z,0.00
2019-03-18T19:53:53.909Z,0.00
2019-03-18T19:54:54.990Z,0.00
2019-03-18T19:55:54.836Z,0.00
2019-03-18T19:56:54.531Z,0.00
2019-03-18T19:57:56.370Z,0.00
2019-03-18T19:58:55.833Z,0.00
2019-03-18T19:59:55.136Z,0.00
2019-03-18T20:00:57.629Z,0.00
2019-03-18T20:01:57.317Z,0.00
2019-03-18T20:02:57.334Z,0.00
2019-03-18T20:04:01.340Z,0.00
2019-03-18T20:04:57.334Z,0.00
2019-03-18T20:06:01.841Z,0.00
2019-03-18T20:06:56.170Z,0.00
2019-03-18T20:07:59.368Z,0.00
2019-03-18T20:08:56.576Z,0.00
2019-03-18T20:09:58.385Z,0.00
2019-03-18T20:11:05.378Z,0.00
2019-03-18T20:11:58.121Z,0.00
2019-03-18T20:12:57.233Z,0.00
2019-03-18T20:13:58.819Z,0.00
2019-03-18T20:15:20.285Z,0.00
2019-03-18T20:15:59.372Z,0.00
2019-03-18T20:16:59.094Z,0.00
2019-03-18T20:18:01.860Z,0.00
2019-03-18T20:19:04.826Z,0.00
2019-03-18T20:19:59.410Z,0.00
2019-03-18T20:20:58.631Z,0.00
2019-03-18T20:22:00.783Z,0.00
2019-03-18T20:22:59.029Z,0.00
2019-03-18T20:24:01.030Z,0.00
2019-03-18T20:25:00.390Z,0.00
2019-03-18T20:26:01.321Z,0.00
2019-03-18T20:26:59.643Z,0.00
2019-03-18T20:28:01.867Z,0.00
2019-03-18T20:29:01.830Z,0.00
2019-03-18T20:30:04.802Z,0.00
2019-03-18T20:31:11.502Z,0.00
2019-03-18T20:32:00.702Z,0.00
2019-03-18T20:33:01.939Z,0.00
2019-03-18T20:34:08.866Z,0.00
2019-03-18T20:35:02.820Z,0.00
2019-03-18T20:36:01.300Z,0.00
2019-03-18T20:37:17.322Z,0.00
2019-03-18T20:38:03.349Z,0.00
2019-03-18T20:39:05.315Z,0.00
2019-03-18T20:40:03.820Z,0.00
2019-03-18T20:41:03.781Z,0.00
2019-03-18T20:42:02.140Z,0.00
2019-03-18T20:43:03.315Z,0.00
2019-03-18T20:44:05.280Z,0.00
2019-03-18T20:45:06.318Z,0.00
2019-03-18T20:46:23.670Z,0.00
2019-03-18T20:47:04.780Z,0.00
2019-03-18T20:48:08.847Z,0.00
2019-03-18T20:49:09.324Z,0.00
2019-03-18T20:50:03.423Z,0.00
2019-03-18T20:51:05.339Z,0.00
2019-03-18T20:52:03.858Z,0.00
2019-03-18T20:53:04.859Z,0.00
2019-03-18T20:54:11.960Z,0.00
2019-03-18T20:55:07.818Z,0.00
2019-03-18T20:56:11.822Z,0.00
2019-03-18T20:57:12.336Z,0.00
2019-03-18T20:58:06.337Z,0.00
2019-03-18T20:59:08.323Z,0.00
2019-03-18T21:00:08.827Z,0.00
2019-03-18T21:01:05.081Z,0.00
2019-03-18T21:02:05.174Z,0.00
2019-03-18T21:03:07.363Z,0.00
2019-03-18T21:04:05.564Z,0.00
2019-03-18T21:05:07.323Z,0.00
2019-03-18T21:06:09.315Z,0.00
2019-03-18T21:07:05.917Z,0.00
2019-03-18T21:08:06.052Z,0.00
2019-03-18T21:09:06.143Z,0.00
2019-03-18T21:10:11.107Z,0.00
2019-03-18T21:11:06.539Z,0.00
2019-03-18T21:12:06.621Z,0.00
2019-03-18T21:13:08.380Z,0.00
2019-03-18T21:14:07.004Z,0.00
2019-03-18T21:15:29.828Z,0.00
2019-03-18T21:16:07.384Z,0.00
2019-03-18T21:17:09.367Z,0.00
2019-03-18T21:18:10.288Z,0.00
2019-03-18T21:19:13.839Z,0.00
2019-03-18T21:20:08.224Z,0.00
2019-03-18T21:21:10.316Z,0.00
2019-03-18T21:22:10.326Z,0.00
2019-03-18T21:23:10.322Z,0.00
2019-03-18T21:24:10.820Z,0.00
2019-03-18T21:25:16.816Z,0.00
2019-03-18T21:26:10.829Z,0.00
2019-03-18T21:27:12.370Z,0.00
2019-03-18T21:28:17.336Z,0.00
2019-03-18T21:29:11.319Z,0.00
2019-03-18T21:30:11.848Z,0.00
2019-03-18T21:31:14.785Z,0.00
2019-03-18T21:32:11.820Z,0.00
2019-03-18T21:33:10.515Z,0.00
2019-03-18T21:34:12.319Z,0.00
2019-03-18T21:35:10.775Z,0.00
2019-03-18T21:36:12.368Z,0.00
2019-03-18T21:37:17.839Z,0.00
2019-03-18T21:38:12.308Z,0.00
2019-03-18T21:39:13.337Z,0.00
2019-03-18T21:40:12.690Z,0.00
2019-03-18T21:41:15.877Z,0.00
2019-03-18T21:42:13.852Z,0.00
2019-03-18T21:43:12.331Z,0.00
2019-03-18T21:44:13.568Z,0.00
2019-03-18T21:45:16.321Z,0.00
2019-03-18T21:46:13.778Z,0.00
2019-03-18T21:47:13.001Z,0.00
2019-03-18T21:48:28.817Z,0.00
2019-03-18T21:49:13.386Z,0.00
2019-03-18T21:50:29.315Z,0.00
2019-03-18T21:51:36.854Z,0.00
2019-03-18T21:52:20.820Z,0.00
2019-03-18T21:53:14.149Z,0.00
2019-03-18T21:54:14.350Z,0.00
2019-03-18T21:55:16.318Z,0.00
2019-03-18T21:56:22.317Z,0.00
2019-03-18T21:57:15.921Z,0.00
2019-03-18T21:58:16.815Z,0.00
2019-03-18T21:59:15.169Z,0.00
2019-03-18T22:00:17.327Z,0.00
2019-03-18T22:01:15.548Z,0.00
2019-03-18T22:02:21.330Z,0.00
2019-03-18T22:03:17.771Z,0.00
2019-03-18T22:04:17.847Z,0.00
2019-03-18T22:05:19.819Z,0.00
2019-03-18T22:06:16.520Z,0.00
2019-03-18T22:07:18.326Z,0.00
2019-03-18T22:08:18.879Z,0.00
2019-03-18T22:09:32.831Z,0.00
2019-03-18T22:10:18.154Z,0.00
2019-03-18T22:11:18.266Z,0.00
2019-03-18T22:12:17.476Z,0.00
2019-03-18T22:13:29.548Z,0.00
2019-03-18T22:14:20.855Z,0.00
2019-03-18T22:15:40.816Z,0.00
2019-03-18T22:16:25.834Z,0.00
2019-03-18T22:17:20.326Z,0.00
2019-03-18T22:18:22.315Z,0.00
2019-03-18T22:19:34.343Z,0.00
2019-03-18T22:20:18.817Z,0.00
2019-03-18T22:21:18.979Z,0.00
2019-03-18T22:22:20.862Z,0.00
2019-03-18T22:23:21.777Z,0.00
2019-03-18T22:24:21.282Z,0.00
2019-03-18T22:25:21.316Z,0.00
2019-03-18T22:26:19.778Z,0.00
2019-03-18T22:27:40.982Z,0.00
2019-03-18T22:28:20.190Z,0.00
2019-03-18T22:29:21.480Z,0.00
2019-03-18T22:30:26.547Z,0.00
2019-03-18T22:31:24.316Z,0.00
2019-03-18T22:32:24.842Z,0.00
2019-03-18T22:33:36.820Z,0.00
2019-03-18T22:34:22.777Z,0.00
2019-03-18T22:35:22.122Z,0.00
2019-03-18T22:36:23.064Z,0.00
2019-03-18T22:37:23.318Z,0.00
2019-03-18T22:38:21.633Z,0.00
2019-03-18T22:39:25.817Z,0.00
2019-03-18T22:40:23.819Z,0.00
2019-03-18T22:41:23.819Z,0.00
2019-03-18T22:42:22.279Z,0.00
2019-03-18T22:43:26.314Z,0.00
2019-03-18T22:44:24.338Z,0.00
2019-03-18T22:45:23.821Z,0.00
2019-03-18T22:46:23.543Z,0.00